Cook, Minnesota
Current Conditions -  °F | °C
As of 12:14 AM on Monday 26 Jan 2015 (Local Time) from KCQM Reporting Station
Overcast Overcast  
Wind Chill: 10°   Ceiling: 5500
Heat Index: 19°   Visibility: 10mi
Dew Point: 14°   Wind: 7mph
Humidity: 80%   Direction: 170°S
Pressure: 29.78"   Gusts: NA
Location:  47.85°N, 92.69°W
Report Text: KCQM 260614Z AUTO 17006KT 10SM SCT021 SCT043 OVC055 M07/M10 A2978 RMK AO2
Loading
Personal Weather Stations






























Interactive Weather Map New forecast layout! Learn more

10-Day Weather Forecast

Advertisements
Track Severe Weather on mobile